Time;durP1;ratioP1;P1;durP2;ratioP2;P2;SDS_P1;SDS_P2;PMS_P1;PMS_P2;Temp;Humidity;BMP_temperature;BMP_pressure;BME280_temperature;BME280_humidity;BME280_pressure;Samples;Min_cycle;Max_cycle;Signal;HPM_P1;HPM_P2
2021/04/18 00:01:57;;;;;;;9.38;7.30;;;9.30;75.60;;;8.88;53.62;100571.13;5069473;28;20040;-42
2021/04/18 00:04:23;;;;;;;9.23;7.00;;;9.40;74.90;;;9.10;52.76;100569.28;5067004;28;20045;-42
2021/04/18 00:06:49;;;;;;;11.05;7.38;;;9.50;73.60;;;9.13;52.30;100575.03;5069557;28;20079;-40
2021/04/18 00:09:15;;;;;;;11.48;7.95;;;9.60;73.30;;;9.17;52.31;100573.00;5068067;28;20143;-42
2021/04/18 00:11:41;;;;;;;11.70;6.65;;;9.60;72.90;;;9.17;52.54;100566.00;5069912;28;20037;-43
2021/04/18 00:14:11;;;;;;;11.40;7.63;;;9.70;73.00;;;9.17;52.54;100566.00;5071510;28;20429;-47
2021/04/18 00:16:38;;;;;;;7.90;6.95;;;9.70;72.80;;;9.24;52.15;100567.13;5070097;28;20037;-41
2021/04/18 00:19:06;;;;;;;10.32;7.50;;;9.70;72.20;;;9.30;51.75;100557.97;5049106;28;20116;-41
2021/04/18 00:21:32;;;;;;;10.95;7.47;;;9.80;71.90;;;9.27;51.79;100556.47;5070200;28;20071;-39
2021/04/18 00:23:58;;;;;;;8.45;7.28;;;9.70;71.90;;;9.25;52.00;100557.56;5070428;28;20092;-43
2021/04/18 00:26:25;;;;;;;10.60;7.28;;;9.70;71.90;;;9.23;51.80;100555.09;5067481;28;20040;-43
2021/04/18 00:28:51;;;;;;;12.52;7.57;;;9.70;72.00;;;9.22;51.70;100552.63;5068972;28;20044;-45
2021/04/18 00:31:17;;;;;;;11.18;7.28;;;9.80;71.90;;;9.17;52.18;100567.78;5067994;28;20040;-45
2021/04/18 00:33:43;;;;;;;9.50;6.80;;;9.70;72.00;;;9.13;52.00;100566.41;5070454;28;20040;-46
2021/04/18 00:36:09;;;;;;;8.43;6.63;;;9.70;72.20;;;9.11;51.94;100566.53;5068947;28;20024;-44
2021/04/18 00:38:36;;;;;;;10.20;7.25;;;9.60;72.20;;;9.06;52.44;100554.91;5067653;28;20041;-46
2021/04/18 00:41:04;;;;;;;10.32;7.25;;;9.60;72.40;;;9.04;52.48;100557.63;5068583;28;20037;-43
2021/04/18 00:43:30;;;;;;;9.80;7.47;;;9.60;72.60;;;9.07;52.57;100561.75;5050765;28;20049;-43
2021/04/18 00:45:56;;;;;;;9.52;6.85;;;9.50;72.60;;;9.08;52.24;100550.38;5062606;28;20119;-46
2021/04/18 00:48:22;;;;;;;9.40;6.75;;;9.50;72.50;;;9.05;52.13;100553.25;5068364;28;20101;-43
2021/04/18 00:50:48;;;;;;;9.57;7.00;;;9.60;72.60;;;9.02;52.55;100548.31;5066015;28;20055;-44
2021/04/18 00:53:14;;;;;;;11.23;7.47;;;9.50;72.40;;;9.02;52.27;100549.13;5070651;28;20041;-45
2021/04/18 00:55:43;;;;;;;9.18;6.35;;;9.50;72.50;;;9.01;52.59;100546.66;5069362;28;20150;-45
2021/04/18 00:58:10;;;;;;;10.60;6.35;;;9.50;72.50;;;9.02;52.36;100545.72;5070304;28;20334;-44
2021/04/18 01:00:38;;;;;;;8.02;6.47;;;9.50;72.50;;;8.97;52.51;100548.75;5034537;28;20132;-43
2021/04/18 01:03:06;;;;;;;8.75;6.53;;;9.60;72.70;;;9.05;52.30;100555.84;5067200;28;20051;-43
2021/04/18 01:05:33;;;;;;;8.70;6.38;;;9.50;72.20;;;9.03;52.35;100547.38;5069488;28;20036;-43
2021/04/18 01:07:59;;;;;;;8.73;6.40;;;9.50;72.30;;;8.96;52.14;100541.91;5067553;28;20033;-44
2021/04/18 01:10:25;;;;;;;10.38;6.20;;;9.50;72.40;;;8.98;52.53;100538.19;5069490;28;20345;-41
2021/04/18 01:12:51;;;;;;;9.90;7.20;;;9.50;72.60;;;9.00;52.05;100538.06;5066858;28;20123;-42
2021/04/18 01:15:18;;;;;;;7.70;6.35;;;9.50;72.40;;;8.92;52.12;100538.75;5051377;28;20044;-43
2021/04/18 01:17:45;;;;;;;10.27;7.18;;;9.40;72.50;;;9.00;52.07;100540.66;5069412;28;20500;-45
2021/04/18 01:20:21;;;;;;;11.93;6.70;;;9.50;72.30;;;9.02;52.03;100540.53;5068144;28;20274;-44
2021/04/18 01:22:50;;;;;;;9.05;6.70;;;9.50;72.20;;;8.97;51.89;100533.97;5068316;28;20047;-45
2021/04/18 01:25:16;;;;;;;11.63;6.75;;;9.50;72.20;;;8.97;51.99;100533.97;5070021;28;20025;-41
2021/04/18 01:27:45;;;;;;;8.07;6.38;;;9.50;72.20;;;8.91;52.46;100531.91;5066522;28;20090;-43
2021/04/18 01:30:23;;;;;;;8.20;6.28;;;9.40;72.40;;;8.83;52.40;100526.53;5068093;28;20036;-46
2021/04/18 01:32:55;;;;;;;8.57;6.63;;;9.40;72.60;;;8.80;52.87;100531.16;5067160;28;20143;-43
2021/04/18 01:35:21;;;;;;;9.15;6.28;;;9.30;73.00;;;8.84;52.64;100522.16;5069939;28;20055;-46
2021/04/18 01:37:48;;;;;;;11.07;6.90;;;9.30;72.70;;;8.80;52.62;100529.41;5067927;28;20040;-45
2021/04/18 01:40:20;;;;;;;10.10;6.50;;;9.30;72.70;;;8.76;52.71;100522.81;5068011;28;20778;-47
2021/04/18 01:42:48;;;;;;;8.15;6.53;;;9.30;72.80;;;8.76;52.69;100529.78;5050858;28;20060;-43
2021/04/18 01:45:16;;;;;;;7.95;5.70;;;9.30;72.70;;;8.82;52.02;100535.28;5068262;28;20457;-43
2021/04/18 01:47:42;;;;;;;10.23;7.03;;;9.30;72.60;;;8.88;52.05;100524.38;5069215;28;20036;-45
2021/04/18 01:50:13;;;;;;;11.48;7.60;;;9.40;72.40;;;8.91;51.91;100523.28;5068057;28;20598;-42
2021/04/18 01:52:40;;;;;;;7.18;5.90;;;9.40;72.00;;;8.95;51.83;100520.28;5067811;28;20047;-40
2021/04/18 01:55:09;;;;;;;9.70;7.20;;;9.40;71.90;;;8.83;51.84;100523.94;5068150;28;20032;-41
2021/04/18 01:57:35;;;;;;;11.20;6.18;;;9.40;72.00;;;8.73;52.19;100524.84;5067468;28;20036;-42
2021/04/18 02:00:01;;;;;;;14.20;6.95;;;9.30;72.40;;;8.64;52.72;100522.09;5067072;28;20373;-41
2021/04/18 02:02:27;;;;;;;7.93;5.78;;;9.20;72.60;;;8.61;52.70;100526.72;5067251;28;20166;-41
2021/04/18 02:04:53;;;;;;;10.38;6.18;;;9.10;73.10;;;8.61;52.78;100518.91;5068232;28;20119;-46
2021/04/18 02:07:19;;;;;;;10.32;6.90;;;9.20;73.50;;;8.62;52.52;100529.19;5067188;28;20658;-46
2021/04/18 02:09:45;;;;;;;7.95;6.15;;;9.10;73.10;;;8.66;52.84;100519.34;5064256;28;20522;-41
2021/04/18 02:12:12;;;;;;;10.93;6.88;;;9.20;73.20;;;8.69;52.76;100529.47;5069047;28;20170;-43
2021/04/18 02:14:38;;;;;;;7.80;6.57;;;9.20;72.80;;;8.68;52.62;100529.63;5066654;28;20064;-45
2021/04/18 02:17:05;;;;;;;9.02;6.35;;;9.20;73.10;;;8.77;52.29;100529.66;5065947;28;20036;-40
2021/04/18 02:19:32;;;;;;;7.15;6.30;;;9.30;72.50;;;8.77;52.00;100526.22;5066372;28;20032;-45
2021/04/18 02:21:59;;;;;;;8.98;6.25;;;9.20;72.40;;;8.80;52.06;100526.78;5067215;28;20075;-44
2021/04/18 02:24:25;;;;;;;7.15;5.97;;;9.30;72.30;;;8.77;52.03;100521.88;5067839;28;20122;-42
2021/04/18 02:26:51;;;;;;;9.18;5.93;;;9.30;72.40;;;8.67;52.53;100525.38;5066906;28;20507;-41
2021/04/18 02:29:17;;;;;;;7.05;5.88;;;9.20;72.70;;;8.61;52.89;100527.53;5065449;28;20149;-45
2021/04/18 02:31:44;;;;;;;8.88;6.32;;;9.10;72.90;;;8.51;53.12;100528.44;5069224;28;20036;-42
2021/04/18 02:34:11;;;;;;;9.57;5.68;;;9.10;73.20;;;8.46;53.42;100533.22;5067255;28;20028;-43
2021/04/18 02:36:37;;;;;;;10.15;5.75;;;9.00;73.60;;;8.44;53.54;100520.38;5067689;28;20035;-44
2021/04/18 02:39:05;;;;;;;8.27;5.82;;;9.00;74.00;;;8.37;53.91;100521.00;5048839;28;20079;-41
2021/04/18 02:41:31;;;;;;;7.57;5.95;;;8.90;74.30;;;8.26;53.96;100520.09;5250168;22;20058;-40
2021/04/18 02:43:57;;;;;;;9.68;6.20;;;8.80;74.80;;;8.23;54.18;100528.13;5076674;28;20151;-40
2021/04/18 02:46:23;;;;;;;9.35;6.07;;;8.80;75.30;;;8.21;54.63;100524.84;5050143;28;20067;-41
2021/04/18 02:48:49;;;;;;;9.52;6.05;;;8.80;75.70;;;8.20;54.57;100527.56;5067308;28;20487;-42
2021/04/18 02:51:15;;;;;;;11.82;5.80;;;8.70;76.00;;;8.21;54.65;100519.66;5068232;28;20066;-46
2021/04/18 02:53:41;;;;;;;8.50;5.88;;;8.70;76.00;;;8.24;54.42;100513.38;5066469;28;20101;-39
2021/04/18 02:56:07;;;;;;;9.15;5.75;;;8.80;75.90;;;8.15;54.68;100519.34;5067232;28;20542;-44
2021/04/18 02:58:34;;;;;;;10.75;6.10;;;8.70;76.20;;;8.20;54.68;100512.81;5068497;28;20074;-44
2021/04/18 03:01:00;;;;;;;9.30;6.38;;;8.70;75.90;;;8.30;53.71;100518.91;5067023;28;20071;-44
2021/04/18 03:03:26;;;;;;;9.77;6.35;;;8.80;75.50;;;8.22;54.59;100513.50;5068317;28;20041;-44
2021/04/18 03:05:53;;;;;;;8.27;6.28;;;8.80;75.90;;;8.19;54.33;100511.19;5065691;28;20032;-43
2021/04/18 03:08:19;;;;;;;8.60;6.47;;;8.70;76.10;;;8.30;54.26;100508.50;5064182;28;20028;-42
2021/04/18 03:10:45;;;;;;;7.95;5.93;;;8.80;75.90;;;8.44;53.51;100511.75;5067973;28;20529;-45
2021/04/18 03:13:11;;;;;;;7.60;5.68;;;8.90;75.00;;;8.39;53.88;100506.13;5066847;28;20112;-45
2021/04/18 03:15:37;;;;;;;8.52;5.45;;;8.90;75.40;;;8.27;53.98;100513.13;5066574;28;20051;-43
2021/04/18 03:18:03;;;;;;;8.85;6.03;;;8.80;75.50;;;8.26;54.44;100506.28;5067205;28;20403;-41
2021/04/18 03:20:30;;;;;;;9.90;6.40;;;8.80;76.50;;;8.18;54.50;100513.91;5067824;28;20709;-40
2021/04/18 03:22:56;;;;;;;10.57;6.72;;;8.70;76.20;;;8.14;54.79;100509.91;5066194;28;20071;-42
2021/04/18 03:25:23;;;;;;;7.80;5.65;;;8.70;76.40;;;8.09;54.89;100506.88;5066701;28;20024;-42
2021/04/18 03:27:49;;;;;;;10.88;6.95;;;8.60;76.60;;;8.06;54.87;100504.53;5067619;28;20055;-42
2021/04/18 03:30:16;;;;;;;11.38;6.07;;;8.60;76.80;;;8.13;54.76;100506.50;5066872;28;20060;-42
2021/04/18 03:32:42;;;;;;;8.45;5.05;;;8.60;76.80;;;8.26;54.02;100499.34;5067674;28;20036;-42
2021/04/18 03:35:08;;;;;;;7.47;5.20;;;8.70;76.30;;;8.25;54.24;100505.47;5066599;28;20036;-41
2021/04/18 03:37:34;;;;;;;10.85;5.88;;;8.80;76.20;;;8.20;54.44;100509.41;5067964;28;20047;-42
2021/04/18 03:40:00;;;;;;;8.52;5.00;;;8.70;76.40;;;8.22;53.99;100510.09;5066657;28;20123;-42
2021/04/18 03:42:26;;;;;;;8.38;6.05;;;8.70;76.10;;;8.23;54.21;100506.56;5066290;28;20044;-41
2021/04/18 03:44:52;;;;;;;6.53;5.10;;;8.70;76.40;;;8.18;54.23;100514.72;5067430;28;20039;-41
2021/04/18 03:47:18;;;;;;;9.45;5.72;;;8.70;76.30;;;8.15;54.44;100503.78;5066267;28;20036;-42
2021/04/18 03:49:44;;;;;;;8.73;6.00;;;8.70;76.60;;;8.06;54.82;100505.34;5049454;28;20044;-42
2021/04/18 03:52:10;;;;;;;11.27;5.72;;;8.60;76.70;;;7.99;55.41;100504.25;5066645;28;20037;-44
2021/04/18 03:54:36;;;;;;;7.85;5.25;;;8.60;77.20;;;7.95;55.34;100508.84;5067713;28;20501;-41
2021/04/18 03:57:02;;;;;;;10.75;5.60;;;8.50;77.60;;;7.79;56.46;100512.81;5048210;28;20400;-41
2021/04/18 03:59:29;;;;;;;7.03;5.00;;;8.40;78.90;;;7.62;57.02;100511.59;5067202;28;20410;-42
2021/04/18 04:01:55;;;;;;;7.28;5.35;;;8.30;79.90;;;7.52;57.07;100515.91;5048202;28;20044;-41
2021/04/18 04:04:21;;;;;;;9.93;5.10;;;8.20;80.80;;;7.40;58.13;100524.66;5067404;28;20111;-44
2021/04/18 04:06:47;;;;;;;9.25;6.20;;;8.00;82.70;;;7.32;58.37;100517.50;5065394;28;20040;-41
2021/04/18 04:09:13;;;;;;;7.38;5.30;;;8.00;83.50;;;7.21;58.64;100523.53;5065856;28;20407;-39
2021/04/18 04:11:38;;;;;;;8.07;5.20;;;7.90;84.10;;;7.16;58.63;100519.66;5066114;28;20065;-41
2021/04/18 04:14:04;;;;;;;8.13;5.15;;;7.80;84.70;;;7.11;58.92;100522.59;5066638;28;20563;-42
2021/04/18 04:16:30;;;;;;;6.63;5.22;;;7.70;85.50;;;7.05;59.71;100517.09;5067463;28;20041;-41
2021/04/18 04:18:57;;;;;;;7.05;5.32;;;7.70;88.00;;;6.99;59.95;100526.19;5066255;28;20113;-44
2021/04/18 04:21:23;;;;;;;7.85;5.13;;;7.60;88.80;;;7.03;59.93;100524.16;5066072;28;20044;-42
2021/04/18 04:23:49;;;;;;;8.07;6.05;;;7.60;88.90;;;7.06;59.44;100521.34;5067159;28;20041;-42
2021/04/18 04:26:15;;;;;;;9.77;5.90;;;7.60;89.30;;;7.03;59.73;100524.16;5065810;28;20499;-43
2021/04/18 04:28:41;;;;;;;8.55;5.03;;;7.60;89.50;;;7.03;59.63;100525.00;5064937;28;20039;-41
2021/04/18 04:31:07;;;;;;;7.22;4.90;;;7.60;90.00;;;7.10;59.93;100526.13;5067205;28;20033;-40
2021/04/18 04:33:36;;;;;;;9.98;6.72;;;7.70;90.40;;;7.14;60.08;100527.53;5065927;28;20407;-41
2021/04/18 04:36:02;;;;;;;6.68;4.80;;;7.70;90.80;;;7.11;61.05;100529.53;5069057;28;20044;-40
2021/04/18 04:38:29;;;;;;;6.18;4.75;;;7.70;91.70;;;7.11;60.99;100534.72;5068831;28;20025;-43
2021/04/18 04:40:56;;;;;;;7.80;5.55;;;7.80;92.10;;;7.01;61.38;100536.41;5070171;28;20032;-40
2021/04/18 04:43:21;;;;;;;8.65;5.25;;;7.80;92.30;;;7.15;60.68;100536.13;5069430;28;20048;-44
2021/04/18 04:45:47;;;;;;;7.75;5.28;;;7.80;91.90;;;7.20;60.70;100531.41;5069623;28;20124;-45
2021/04/18 04:48:13;;;;;;;6.82;5.10;;;7.80;92.20;;;7.23;60.68;100532.00;5070725;28;20141;-41
2021/04/18 04:50:39;;;;;;;6.60;5.28;;;7.90;92.40;;;7.25;60.95;100534.47;5069653;28;20047;-41
2021/04/18 04:53:05;;;;;;;5.45;4.75;;;7.90;92.70;;;7.21;61.15;100544.25;5070394;28;20036;-39
2021/04/18 04:55:31;;;;;;;8.98;5.45;;;7.90;93.20;;;7.26;61.45;100546.50;5068114;28;20051;-42
2021/04/18 04:57:57;;;;;;;7.82;4.90;;;7.90;93.20;;;7.42;60.39;100553.88;5070299;28;20130;-41
2021/04/18 05:00:24;;;;;;;9.63;5.80;;;8.00;92.70;;;7.43;59.96;100550.34;5069333;28;20040;-41
2021/04/18 05:02:50;;;;;;;5.75;5.05;;;8.10;92.20;;;7.55;60.12;100552.78;5070632;28;20067;-44
2021/04/18 05:05:17;;;;;;;7.43;5.32;;;8.20;92.00;;;7.63;60.27;100545.19;5069132;28;20067;-38
2021/04/18 05:07:43;;;;;;;8.88;6.15;;;8.30;92.40;;;7.63;60.26;100558.16;5070137;28;20074;-41
2021/04/18 05:10:09;;;;;;;5.60;4.68;;;8.40;92.50;;;7.64;60.35;100551.19;5069075;28;20036;-40
2021/04/18 05:12:35;;;;;;;8.10;5.90;;;8.50;92.00;;;7.90;59.37;100551.69;5069118;28;20043;-42
2021/04/18 05:15:03;;;;;;;7.53;5.60;;;8.70;91.70;;;8.25;59.33;100552.19;5067426;28;20048;-42
2021/04/18 05:17:29;;;;;;;10.80;5.00;;;9.10;91.30;;;8.39;59.10;100551.09;5068014;28;20174;-41
2021/04/18 05:19:55;;;;;;;9.02;5.97;;;9.40;90.20;;;8.32;59.21;100550.78;5067906;28;20123;-42
2021/04/18 05:22:20;;;;;;;11.50;5.80;;;9.30;90.30;;;8.54;58.28;100552.38;5067852;28;20207;-41
2021/04/18 05:24:46;;;;;;;7.97;5.40;;;9.50;89.30;;;8.56;58.78;100553.06;5067962;28;20499;-44
2021/04/18 05:27:12;;;;;;;9.07;5.47;;;9.50;90.20;;;8.76;58.46;100551.38;5066896;28;20039;-41
2021/04/18 05:29:38;;;;;;;8.57;5.90;;;9.60;90.20;;;9.07;58.26;100556.53;5067949;28;20391;-45
2021/04/18 05:32:05;;;;;;;9.32;7.30;;;10.00;89.30;;;9.25;58.00;100563.56;5068194;28;20119;-41
2021/04/18 05:34:32;;;;;;;6.65;6.03;;;10.30;87.30;;;9.28;58.25;100555.50;5067402;28;20033;-43
2021/04/18 05:37:00;;;;;;;8.23;6.35;;;10.40;87.30;;;9.44;57.88;100564.59;5066897;28;20569;-40
2021/04/18 05:39:27;;;;;;;8.55;6.95;;;10.40;87.30;;;9.77;57.30;100563.38;5066502;28;20545;-40
2021/04/18 05:41:54;;;;;;;6.70;5.70;;;10.80;86.90;;;10.67;55.59;100557.75;5067057;28;20048;-46
2021/04/18 05:44:20;;;;;;;8.35;5.25;;;12.00;81.70;;;11.56;53.47;100566.59;5067491;28;20033;-44
2021/04/18 05:46:46;;;;;;;6.68;5.25;;;13.10;75.90;;;11.12;54.19;100563.03;5066602;28;20037;-41
2021/04/18 05:49:12;;;;;;;5.65;5.00;;;12.80;74.70;;;10.76;55.28;100562.94;5067841;28;20032;-49
2021/04/18 05:51:38;;;;;;;6.45;4.68;;;12.30;76.20;;;10.56;55.99;100571.75;5066653;28;20122;-42
2021/04/18 05:54:06;;;;;;;5.40;4.72;;;11.80;79.10;;;10.52;56.27;100573.81;5066990;28;20495;-42
2021/04/18 05:56:32;;;;;;;6.50;4.60;;;11.60;80.50;;;10.57;55.92;100576.00;5067051;28;20163;-44
2021/04/18 05:58:58;;;;;;;6.60;5.47;;;11.60;80.20;;;10.63;55.48;100563.25;5067451;28;20036;-40
2021/04/18 06:01:24;;;;;;;10.65;6.68;;;11.60;79.90;;;10.45;55.82;100567.53;5067695;28;20210;-40
2021/04/18 06:03:51;;;;;;;16.05;9.13;;;11.40;80.40;;;10.27;55.62;100572.66;5065573;28;20036;-46
2021/04/18 06:06:18;;;;;;;8.80;7.00;;;11.30;79.70;;;10.25;55.70;100573.75;5067992;28;20036;-45
2021/04/18 06:08:43;;;;;;;8.13;6.70;;;11.20;80.40;;;10.35;55.77;100571.97;5068793;28;20484;-41
2021/04/18 06:11:09;;;;;;;11.25;7.45;;;11.20;81.10;;;10.34;55.83;100564.28;5068694;28;20036;-41
2021/04/18 06:13:36;;;;;;;9.95;6.90;;;11.20;81.50;;;10.33;55.62;100567.88;5067443;28;20033;-44
2021/04/18 06:16:02;;;;;;;7.90;6.20;;;11.20;81.20;;;10.41;55.47;100573.16;5065712;28;20044;-43
2021/04/18 06:18:28;;;;;;;9.27;7.05;;;11.20;81.00;;;10.36;55.24;100570.19;5067160;28;20040;-45
2021/04/18 06:20:54;;;;;;;9.27;6.80;;;11.20;80.40;;;10.52;55.13;100576.44;5066744;28;20043;-46
2021/04/18 06:23:22;;;;;;;9.68;6.55;;;11.30;80.90;;;10.66;55.04;100582.97;5066141;28;20090;-46
2021/04/18 06:25:49;;;;;;;8.27;6.10;;;11.30;80.90;;;10.63;54.37;100584.09;5067083;28;20070;-43
2021/04/18 06:28:15;;;;;;;7.60;6.00;;;11.40;79.20;;;10.67;54.11;100584.63;5066014;28;20395;-46
2021/04/18 06:30:42;;;;;;;8.13;6.20;;;11.40;79.20;;;10.70;53.98;100576.53;5067136;28;20092;-44
2021/04/18 06:33:08;;;;;;;7.75;6.55;;;11.40;79.10;;;10.73;54.21;100578.84;5065636;28;20730;-45
2021/04/18 06:35:34;;;;;;;8.15;6.10;;;11.40;79.20;;;10.79;54.24;100573.06;5065922;28;20037;-42
2021/04/18 06:38:00;;;;;;;11.95;7.68;;;11.50;79.70;;;10.73;54.95;100580.63;5066571;28;20027;-47
2021/04/18 06:40:26;;;;;;;11.50;8.70;;;11.40;80.60;;;10.81;54.68;100584.16;5065610;28;20044;-42
2021/04/18 06:42:57;;;;;;;11.82;7.53;;;11.50;80.00;;;10.87;54.18;100580.16;5064947;28;20044;-45
2021/04/18 06:45:23;;;;;;;10.68;7.00;;;11.60;79.00;;;11.00;53.49;100574.59;5065341;28;20365;-49
2021/04/18 06:47:50;;;;;;;22.98;14.23;;;11.70;78.00;;;11.69;52.40;100576.66;5066661;28;20029;-43
2021/04/18 06:50:17;;;;;;;12.40;8.98;;;12.60;76.10;;;13.29;48.68;100577.84;5066204;28;20089;-48
2021/04/18 06:52:43;;;;;;;7.35;6.10;;;15.20;67.00;;;15.10;44.52;100572.31;5065743;28;20062;-41
2021/04/18 06:55:10;;;;;;;9.50;6.38;;;17.40;58.50;;;16.32;41.46;100574.91;5065464;28;20033;-44
2021/04/18 06:57:37;;;;;;;9.25;6.35;;;18.70;53.60;;;16.69;40.10;100574.06;5064708;28;20044;-44
2021/04/18 07:00:09;;;;;;;9.40;5.88;;;18.70;52.80;;;16.05;41.15;100578.94;5065707;28;20361;-44
2021/04/18 07:02:35;;;;;;;6.72;5.57;;;17.80;54.10;;;15.69;42.00;100576.09;5063829;28;20041;-44
2021/04/18 07:05:14;;;;;;;5.93;5.00;;;17.10;55.40;;;15.13;42.24;100570.16;5066022;28;20028;-42
2021/04/18 07:07:43;;;;;;;6.55;4.78;;;16.40;55.80;;;14.55;43.04;100573.19;5065415;28;20051;-44
2021/04/18 07:10:32;;;;;;;6.57;4.70;;;15.80;56.60;;;14.73;43.05;100575.56;5065955;28;20052;-43
2021/04/18 07:13:09;;;;;;;6.00;4.95;;;15.70;57.70;;;14.57;42.80;100576.44;5064968;28;20044;-50
2021/04/18 07:15:38;;;;;;;6.30;4.95;;;15.70;57.30;;;14.20;44.36;100574.31;5065904;28;20171;-44
2021/04/18 07:18:05;;;;;;;7.65;5.38;;;15.40;58.20;;;13.56;45.00;100576.78;5057937;28;20064;-46
2021/04/18 07:20:31;;;;;;;5.20;4.40;;;14.90;58.20;;;13.26;45.59;100580.78;5066029;28;20040;-44
2021/04/18 07:23:23;;;;;;;6.53;4.88;;;14.50;59.00;;;13.25;44.30;100567.84;5065438;28;20036;-45
2021/04/18 07:25:49;;;;;;;6.05;4.88;;;14.40;59.10;;;13.40;45.49;100575.91;5065212;28;20044;-44
2021/04/18 07:28:26;;;;;;;6.03;4.75;;;14.40;60.40;;;13.54;44.65;100577.91;5065935;28;20058;-43
2021/04/18 07:31:02;;;;;;;8.18;4.47;;;14.40;59.80;;;13.66;44.92;100578.44;5064517;28;20044;-46
2021/04/18 07:33:28;;;;;;;;;;;14.70;59.90;;;13.80;43.95;100575.97;5065589;28;20036;-42
2021/04/18 07:35:54;;;;;;;4.25;3.85;;;14.90;58.50;;;14.07;44.15;100576.66;5064777;28;20409;-44
2021/04/18 07:38:29;;;;;;;5.22;4.28;;;15.00;58.80;;;13.84;43.84;100568.63;5066041;28;20036;-43
2021/04/18 07:41:19;;;;;;;6.13;3.97;;;14.90;58.10;;;13.78;42.87;100577.94;5064760;28;20399;-46
2021/04/18 07:43:47;;;;;;;6.55;3.45;;;14.80;57.30;;;13.62;44.01;100580.56;5064238;28;20056;-42
2021/04/18 07:46:15;;;;;;;5.90;4.13;;;14.70;58.50;;;13.71;44.34;100573.50;5065299;28;20333;-42
2021/04/18 07:48:43;;;;;;;4.85;3.67;;;14.70;59.30;;;13.80;43.50;100573.34;5065254;28;20496;-41
2021/04/18 07:51:10;;;;;;;4.82;3.28;;;14.80;57.90;;;13.94;42.91;100571.91;5064589;28;20078;-46
2021/04/18 07:53:38;;;;;;;4.38;3.67;;;14.90;57.30;;;13.80;42.77;100568.13;5064005;28;20089;-46
2021/04/18 07:56:15;;;;;;;5.25;4.38;;;14.90;56.90;;;13.76;41.91;100565.97;5063126;28;20500;-46
2021/04/18 07:58:44;;;;;;;6.60;3.88;;;14.70;56.20;;;13.76;41.53;100564.19;5065297;28;20123;-43
2021/04/18 08:01:11;;;;;;;6.03;4.38;;;14.80;55.60;;;13.39;42.25;100559.41;5064453;28;20573;-42
2021/04/18 08:03:42;;;;;;;4.25;2.90;;;14.40;56.10;;;13.22;40.59;100552.50;5065044;28;20056;-42
2021/04/18 08:06:08;;;;;;;4.60;3.22;;;14.30;55.20;;;13.02;41.62;100566.78;5065159;28;20364;-42
2021/04/18 08:08:49;;;;;;;4.47;3.08;;;13.90;55.80;;;12.89;41.30;100557.56;5064032;28;20040;-43
2021/04/18 08:11:18;;;;;;;6.75;3.03;;;13.70;55.80;;;12.58;41.71;100570.34;5068449;28;20081;-41
2021/04/18 08:13:52;;;;;;;4.10;2.97;;;13.50;55.60;;;12.89;41.07;100557.56;5068844;28;20071;-43
2021/04/18 08:16:32;;;;;;;4.07;2.28;;;13.50;56.00;;;12.70;40.21;100568.28;5065074;28;20055;-43
2021/04/18 08:19:14;;;;;;;6.93;4.07;;;13.50;55.00;;;12.85;40.39;100560.66;5061691;28;20037;-44
2021/04/18 08:21:43;;;;;;;5.45;3.67;;;13.40;55.50;;;12.94;40.71;100560.53;5061143;28;20032;-44
2021/04/18 08:24:18;;;;;;;4.43;2.95;;;13.50;55.60;;;13.04;39.83;100549.97;5067622;28;20472;-44
2021/04/18 08:27:06;;;;;;;4.68;3.20;;;13.70;54.90;;;12.79;39.72;100554.25;5062075;28;20040;-44
2021/04/18 08:29:35;;;;;;;7.38;3.88;;;13.50;54.20;;;12.89;40.33;100551.53;5066876;28;20041;-41
2021/04/18 08:32:10;;;;;;;4.90;3.40;;;13.50;54.70;;;12.98;39.95;100547.97;5068661;28;20486;-47
2021/04/18 08:34:40;;;;;;;4.75;2.90;;;13.50;54.90;;;13.10;39.81;100554.56;5067162;28;20050;-44
2021/04/18 08:37:20;;;;;;;3.88;2.58;;;13.60;54.80;;;13.19;40.24;100558.06;5068266;28;20094;-44
2021/04/18 08:39:47;;;;;;;3.58;3.22;;;13.70;55.20;;;13.56;40.52;100558.47;5068961;28;20044;-47
2021/04/18 08:42:29;;;;;;;6.25;3.47;;;14.10;56.10;;;14.00;40.57;100560.75;5068911;28;20043;-48
2021/04/18 08:44:57;;;;;;;4.70;3.80;;;14.50;56.10;;;14.23;40.25;100561.72;5062091;28;20426;-44
2021/04/18 08:47:30;;;;;;;5.60;4.03;;;14.70;55.60;;;14.20;40.04;100563.84;5067832;28;20514;-43
2021/04/18 08:50:18;;;;;;;6.15;3.90;;;14.90;55.00;;;14.45;40.39;100557.63;5068755;28;20387;-46
2021/04/18 08:52:44;;;;;;;6.40;3.97;;;15.00;55.60;;;14.51;40.17;100561.38;5066389;28;20079;-45
2021/04/18 08:55:16;;;;;;;5.95;3.92;;;15.20;55.20;;;14.17;40.16;100558.97;5068837;28;20471;-47
2021/04/18 08:57:42;;;;;;;4.47;3.65;;;15.00;55.10;;;14.34;40.12;100559.75;5067652;28;20037;-45
2021/04/18 09:00:14;;;;;;;5.50;3.90;;;15.10;54.60;;;14.46;39.85;100561.06;5068687;28;20032;-44
2021/04/18 09:02:41;;;;;;;6.45;4.05;;;15.00;54.80;;;15.12;39.20;100555.41;5067504;28;20118;-41
2021/04/18 09:05:15;;;;;;;4.95;3.58;;;15.50;54.90;;;15.35;38.91;100552.81;5067804;28;20080;-42
2021/04/18 09:07:43;;;;;;;4.75;3.90;;;15.90;54.20;;;15.69;38.76;100559.50;5063774;28;20043;-47
2021/04/18 09:10:12;;;;;;;5.80;4.07;;;16.20;54.10;;;15.96;37.91;100564.25;5068264;28;20555;-48
2021/04/18 09:12:38;;;;;;;4.32;3.10;;;16.40;53.30;;;15.91;37.88;100561.31;5068336;28;20059;-49
2021/04/18 09:15:06;;;;;;;4.43;3.45;;;16.60;52.80;;;15.89;37.61;100558.06;5067801;28;20131;-46
2021/04/18 09:17:35;;;;;;;4.47;2.80;;;16.60;52.30;;;15.87;37.38;100560.03;5064776;28;20583;-47
2021/04/18 09:20:10;;;;;;;3.92;3.38;;;16.60;52.10;;;15.69;37.03;100551.63;5066942;28;20090;-47
2021/04/18 09:22:41;;;;;;;3.08;2.78;;;16.50;51.40;;;15.83;37.40;100554.31;5067508;28;20036;-50
2021/04/18 09:25:18;;;;;;;5.18;3.15;;;16.50;51.80;;;15.98;37.22;100551.75;5067510;28;20033;-52
2021/04/18 09:27:49;;;;;;;6.97;4.85;;;16.70;52.00;;;15.99;37.70;100547.31;5068396;28;20040;-50
2021/04/18 09:30:27;;;;;;;3.60;2.78;;;16.70;52.10;;;16.14;36.72;100541.06;5067570;28;21717;-45
2021/04/18 09:33:01;;;;;;;4.30;3.33;;;16.80;51.50;;;16.14;36.73;100548.94;5066533;28;20029;-50
2021/04/18 09:35:28;;;;;;;3.85;3.22;;;16.80;51.00;;;16.53;36.01;100540.03;5061263;28;20063;-50
2021/04/18 09:38:01;;;;;;;4.95;4.15;;;17.10;50.70;;;16.47;34.88;100538.13;5068207;28;20119;-47
2021/04/18 09:40:32;;;;;;;4.45;3.60;;;17.20;49.60;;;16.81;35.17;100543.66;5060493;28;20052;-48
2021/04/18 09:43:00;;;;;;;3.95;3.20;;;17.30;50.00;;;16.89;34.77;100538.31;5054525;28;20408;-51
2021/04/18 09:45:32;;;;;;;4.57;2.75;;;17.50;49.20;;;16.84;34.25;100540.69;5047011;28;20412;-48
2021/04/18 09:48:18;;;;;;;4.30;3.40;;;17.60;48.70;;;17.36;34.29;100541.47;5042456;28;20151;-50
2021/04/18 09:51:02;;;;;;;5.13;3.65;;;17.80;49.30;;;17.03;34.16;100533.19;5045301;28;20131;-47
2021/04/18 09:53:30;;;;;;;4.55;3.50;;;17.80;48.40;;;16.92;34.50;100540.56;5040540;28;20079;-50
2021/04/18 09:56:08;;;;;;;6.65;3.42;;;17.70;48.00;;;16.79;34.20;100539.59;5046434;28;20025;-49
2021/04/18 09:58:39;;;;;;;4.15;3.60;;;17.50;48.60;;;16.68;34.28;100538.22;5044909;28;20160;-52
2021/04/18 10:01:29;;;;;;;4.22;2.70;;;17.40;48.60;;;16.66;33.73;100534.97;5045450;28;20043;-49
2021/04/18 10:03:55;;;;;;;3.80;3.05;;;17.40;48.00;;;16.63;33.63;100542.38;5045009;28;20119;-46
2021/04/18 10:06:23;;;;;;;4.22;3.33;;;17.40;47.00;;;16.23;34.05;100534.75;5045144;28;20036;-48
2021/04/18 10:08:55;;;;;;;3.13;2.78;;;17.10;46.70;;;16.23;33.92;100544.44;5045358;28;20116;-51
2021/04/18 10:11:22;;;;;;;6.88;3.08;;;17.00;47.50;;;16.50;34.26;100546.47;5037991;28;20048;-49
2021/04/18 10:13:59;;;;;;;5.28;3.60;;;17.20;47.80;;;16.71;34.54;100532.59;5028064;28;20036;-49
2021/04/18 10:16:34;;;;;;;5.40;3.97;;;17.30;48.50;;;16.35;34.53;100536.94;5045051;28;20192;-49
2021/04/18 10:19:10;;;;;;;3.58;3.17;;;17.20;48.10;;;15.95;34.82;100541.59;5046349;28;20527;-50
2021/04/18 10:21:38;;;;;;;4.22;3.33;;;16.80;47.90;;;15.93;35.67;100533.88;5043918;28;20048;-49
2021/04/18 10:24:36;;;;;;;7.47;3.50;;;16.70;49.00;;;15.84;34.95;100540.19;5043956;28;20036;-46